sensor_id;sensor_type;location;lat;lon;timestamp;P1;durP1;ratioP1;P2;durP2;ratioP2
10731;SDS011;5417;42.686;23.244;2022-10-22T00:02:16;19.13;;;17.10;;
10731;SDS011;5417;42.686;23.244;2022-10-22T00:04:44;18.97;;;16.93;;
10731;SDS011;5417;42.686;23.244;2022-10-22T00:07:12;19.10;;;17.13;;
10731;SDS011;5417;42.686;23.244;2022-10-22T00:09:39;20.60;;;17.20;;
10731;SDS011;5417;42.686;23.244;2022-10-22T00:12:07;19.37;;;16.73;;
10731;SDS011;5417;42.686;23.244;2022-10-22T00:14:35;21.00;;;17.30;;
10731;SDS011;5417;42.686;23.244;2022-10-22T00:17:02;18.93;;;16.93;;
10731;SDS011;5417;42.686;23.244;2022-10-22T00:19:29;18.53;;;16.63;;
10731;SDS011;5417;42.686;23.244;2022-10-22T00:21:56;19.57;;;16.40;;
10731;SDS011;5417;42.686;23.244;2022-10-22T00:24:23;20.90;;;16.27;;
10731;SDS011;5417;42.686;23.244;2022-10-22T00:26:50;18.90;;;17.00;;
10731;SDS011;5417;42.686;23.244;2022-10-22T00:29:19;20.63;;;17.00;;
10731;SDS011;5417;42.686;23.244;2022-10-22T00:31:46;18.87;;;16.97;;
10731;SDS011;5417;42.686;23.244;2022-10-22T00:34:14;22.90;;;17.70;;
10731;SDS011;5417;42.686;23.244;2022-10-22T00:36:42;20.57;;;16.83;;
10731;SDS011;5417;42.686;23.244;2022-10-22T00:39:09;19.30;;;17.37;;
10731;SDS011;5417;42.686;23.244;2022-10-22T00:41:37;20.57;;;16.27;;
10731;SDS011;5417;42.686;23.244;2022-10-22T00:44:04;19.50;;;16.83;;
10731;SDS011;5417;42.686;23.244;2022-10-22T00:46:33;19.93;;;17.47;;
10731;SDS011;5417;42.686;23.244;2022-10-22T00:49:01;17.50;;;15.70;;
10731;SDS011;5417;42.686;23.244;2022-10-22T00:51:30;19.33;;;16.97;;
10731;SDS011;5417;42.686;23.244;2022-10-22T00:54:00;20.73;;;17.23;;
10731;SDS011;5417;42.686;23.244;2022-10-22T00:56:31;17.27;;;15.47;;
10731;SDS011;5417;42.686;23.244;2022-10-22T00:58:59;19.03;;;16.93;;
10731;SDS011;5417;42.686;23.244;2022-10-22T01:01:28;20.87;;;17.97;;
10731;SDS011;5417;42.686;23.244;2022-10-22T01:03:58;22.40;;;17.00;;
10731;SDS011;5417;42.686;23.244;2022-10-22T01:06:26;18.87;;;16.97;;
10731;SDS011;5417;42.686;23.244;2022-10-22T01:09:00;20.00;;;17.70;;
10731;SDS011;5417;42.686;23.244;2022-10-22T01:11:34;19.50;;;17.03;;
10731;SDS011;5417;42.686;23.244;2022-10-22T01:14:12;20.10;;;18.07;;
10731;SDS011;5417;42.686;23.244;2022-10-22T01:16:46;19.57;;;17.50;;
10731;SDS011;5417;42.686;23.244;2022-10-22T01:22:17;20.10;;;18.10;;
10731;SDS011;5417;42.686;23.244;2022-10-22T01:24:57;21.73;;;17.53;;
10731;SDS011;5417;42.686;23.244;2022-10-22T01:27:33;21.37;;;17.17;;
10731;SDS011;5417;42.686;23.244;2022-10-22T01:30:09;20.37;;;17.30;;
10731;SDS011;5417;42.686;23.244;2022-10-22T01:32:38;21.53;;;18.67;;
10731;SDS011;5417;42.686;23.244;2022-10-22T01:35:09;19.57;;;17.47;;
10731;SDS011;5417;42.686;23.244;2022-10-22T01:37:41;20.27;;;18.07;;
10731;SDS011;5417;42.686;23.244;2022-10-22T01:40:11;20.57;;;17.43;;
10731;SDS011;5417;42.686;23.244;2022-10-22T01:42:40;25.07;;;17.80;;
10731;SDS011;5417;42.686;23.244;2022-10-22T01:45:11;21.50;;;18.90;;
10731;SDS011;5417;42.686;23.244;2022-10-22T01:47:40;20.43;;;17.60;;
10731;SDS011;5417;42.686;23.244;2022-10-22T01:50:22;18.17;;;16.27;;
10731;SDS011;5417;42.686;23.244;2022-10-22T01:55:51;20.20;;;16.80;;
10731;SDS011;5417;42.686;23.244;2022-10-22T01:58:30;23.07;;;17.23;;
10731;SDS011;5417;42.686;23.244;2022-10-22T02:01:06;20.27;;;16.90;;
10731;SDS011;5417;42.686;23.244;2022-10-22T02:03:39;19.17;;;17.27;;
10731;SDS011;5417;42.686;23.244;2022-10-22T02:06:12;20.93;;;17.83;;
10731;SDS011;5417;42.686;23.244;2022-10-22T02:08:43;19.60;;;17.50;;
10731;SDS011;5417;42.686;23.244;2022-10-22T02:11:10;21.87;;;19.57;;
10731;SDS011;5417;42.686;23.244;2022-10-22T02:13:39;20.53;;;17.63;;
10731;SDS011;5417;42.686;23.244;2022-10-22T02:16:12;19.90;;;17.67;;
10731;SDS011;5417;42.686;23.244;2022-10-22T02:18:41;19.73;;;17.13;;
10731;SDS011;5417;42.686;23.244;2022-10-22T02:21:11;19.13;;;17.20;;
10731;SDS011;5417;42.686;23.244;2022-10-22T02:23:39;19.63;;;17.53;;
10731;SDS011;5417;42.686;23.244;2022-10-22T02:26:08;19.70;;;17.70;;
10731;SDS011;5417;42.686;23.244;2022-10-22T02:28:43;21.43;;;17.57;;
10731;SDS011;5417;42.686;23.244;2022-10-22T02:31:18;23.83;;;20.50;;
10731;SDS011;5417;42.686;23.244;2022-10-22T02:33:49;23.30;;;18.70;;
10731;SDS011;5417;42.686;23.244;2022-10-22T02:36:20;20.37;;;18.03;;
10731;SDS011;5417;42.686;23.244;2022-10-22T02:38:48;19.83;;;17.37;;
10731;SDS011;5417;42.686;23.244;2022-10-22T02:41:16;21.87;;;17.43;;
10731;SDS011;5417;42.686;23.244;2022-10-22T02:43:49;20.37;;;17.63;;
10731;SDS011;5417;42.686;23.244;2022-10-22T02:46:19;26.87;;;21.93;;
10731;SDS011;5417;42.686;23.244;2022-10-22T02:48:48;26.50;;;19.77;;
10731;SDS011;5417;42.686;23.244;2022-10-22T02:51:14;22.10;;;19.47;;
10731;SDS011;5417;42.686;23.244;2022-10-22T02:53:41;23.53;;;18.47;;
10731;SDS011;5417;42.686;23.244;2022-10-22T02:56:08;22.37;;;17.00;;
10731;SDS011;5417;42.686;23.244;2022-10-22T02:58:35;23.13;;;17.53;;
10731;SDS011;5417;42.686;23.244;2022-10-22T03:01:04;21.67;;;18.97;;
10731;SDS011;5417;42.686;23.244;2022-10-22T03:03:32;23.97;;;18.47;;
10731;SDS011;5417;42.686;23.244;2022-10-22T03:05:59;21.80;;;17.70;;
10731;SDS011;5417;42.686;23.244;2022-10-22T03:08:26;23.57;;;17.90;;
10731;SDS011;5417;42.686;23.244;2022-10-22T03:10:53;72.20;;;52.00;;
10731;SDS011;5417;42.686;23.244;2022-10-22T03:13:20;46.27;;;35.37;;
10731;SDS011;5417;42.686;23.244;2022-10-22T03:15:47;25.63;;;19.47;;
10731;SDS011;5417;42.686;23.244;2022-10-22T03:18:14;19.30;;;17.33;;
10731;SDS011;5417;42.686;23.244;2022-10-22T03:20:43;19.77;;;17.67;;
10731;SDS011;5417;42.686;23.244;2022-10-22T03:23:10;23.77;;;18.40;;
10731;SDS011;5417;42.686;23.244;2022-10-22T03:25:38;20.30;;;18.20;;
10731;SDS011;5417;42.686;23.244;2022-10-22T03:28:07;23.87;;;17.77;;
10731;SDS011;5417;42.686;23.244;2022-10-22T03:30:40;19.37;;;17.40;;
10731;SDS011;5417;42.686;23.244;2022-10-22T03:33:07;20.17;;;18.13;;
10731;SDS011;5417;42.686;23.244;2022-10-22T03:35:34;21.43;;;18.63;;
10731;SDS011;5417;42.686;23.244;2022-10-22T03:38:09;24.97;;;18.20;;
10731;SDS011;5417;42.686;23.244;2022-10-22T03:40:36;20.67;;;18.40;;
10731;SDS011;5417;42.686;23.244;2022-10-22T03:43:03;23.60;;;17.83;;
10731;SDS011;5417;42.686;23.244;2022-10-22T03:45:30;22.03;;;19.60;;
10731;SDS011;5417;42.686;23.244;2022-10-22T03:47:57;20.83;;;18.57;;
10731;SDS011;5417;42.686;23.244;2022-10-22T03:50:24;22.07;;;19.07;;
10731;SDS011;5417;42.686;23.244;2022-10-22T03:52:51;21.03;;;18.87;;
10731;SDS011;5417;42.686;23.244;2022-10-22T03:55:19;22.33;;;19.90;;
10731;SDS011;5417;42.686;23.244;2022-10-22T03:57:46;20.43;;;18.23;;
10731;SDS011;5417;42.686;23.244;2022-10-22T04:00:13;24.17;;;20.53;;
10731;SDS011;5417;42.686;23.244;2022-10-22T04:02:40;24.33;;;19.47;;
10731;SDS011;5417;42.686;23.244;2022-10-22T04:05:07;23.33;;;18.57;;
10731;SDS011;5417;42.686;23.244;2022-10-22T04:07:34;27.37;;;19.27;;
10731;SDS011;5417;42.686;23.244;2022-10-22T04:10:01;21.97;;;19.43;;
10731;SDS011;5417;42.686;23.244;2022-10-22T04:12:30;21.53;;;19.23;;
10731;SDS011;5417;42.686;23.244;2022-10-22T04:14:57;21.93;;;18.40;;
10731;SDS011;5417;42.686;23.244;2022-10-22T04:17:24;22.80;;;19.03;;
10731;SDS011;5417;42.686;23.244;2022-10-22T04:19:50;20.30;;;18.20;;
10731;SDS011;5417;42.686;23.244;2022-10-22T04:22:17;19.60;;;17.37;;
10731;SDS011;5417;42.686;23.244;2022-10-22T04:24:44;18.73;;;16.70;;
10731;SDS011;5417;42.686;23.244;2022-10-22T04:27:11;19.03;;;17.03;;
10731;SDS011;5417;42.686;23.244;2022-10-22T04:29:39;20.20;;;17.80;;
10731;SDS011;5417;42.686;23.244;2022-10-22T04:32:06;19.90;;;17.90;;
10731;SDS011;5417;42.686;23.244;2022-10-22T04:34:33;18.60;;;16.70;;
10731;SDS011;5417;42.686;23.244;2022-10-22T04:36:59;19.67;;;17.63;;
10731;SDS011;5417;42.686;23.244;2022-10-22T04:39:27;19.77;;;17.77;;
10731;SDS011;5417;42.686;23.244;2022-10-22T04:41:54;148.60;;;118.63;;
10731;SDS011;5417;42.686;23.244;2022-10-22T04:44:21;118.17;;;93.97;;
10731;SDS011;5417;42.686;23.244;2022-10-22T04:46:49;107.60;;;83.00;;
10731;SDS011;5417;42.686;23.244;2022-10-22T04:49:16;72.93;;;58.47;;
10731;SDS011;5417;42.686;23.244;2022-10-22T04:51:43;38.13;;;31.67;;
10731;SDS011;5417;42.686;23.244;2022-10-22T04:54:10;24.10;;;20.40;;
10731;SDS011;5417;42.686;23.244;2022-10-22T04:56:37;20.57;;;18.53;;
10731;SDS011;5417;42.686;23.244;2022-10-22T04:59:04;24.17;;;18.57;;
10731;SDS011;5417;42.686;23.244;2022-10-22T05:01:33;20.07;;;17.70;;
10731;SDS011;5417;42.686;23.244;2022-10-22T05:04:03;20.60;;;18.50;;
10731;SDS011;5417;42.686;23.244;2022-10-22T05:06:31;25.50;;;18.17;;
10731;SDS011;5417;42.686;23.244;2022-10-22T05:09:01;20.83;;;18.10;;
10731;SDS011;5417;42.686;23.244;2022-10-22T05:11:31;21.87;;;18.13;;
10731;SDS011;5417;42.686;23.244;2022-10-22T05:14:00;23.53;;;18.33;;
10731;SDS011;5417;42.686;23.244;2022-10-22T05:16:28;22.33;;;19.70;;
10731;SDS011;5417;42.686;23.244;2022-10-22T05:18:56;20.57;;;18.17;;
10731;SDS011;5417;42.686;23.244;2022-10-22T05:21:25;22.07;;;18.13;;
10731;SDS011;5417;42.686;23.244;2022-10-22T05:23:53;20.20;;;18.17;;
10731;SDS011;5417;42.686;23.244;2022-10-22T05:26:21;20.33;;;18.27;;
10731;SDS011;5417;42.686;23.244;2022-10-22T05:28:49;22.67;;;19.20;;
10731;SDS011;5417;42.686;23.244;2022-10-22T05:31:17;22.70;;;19.43;;
10731;SDS011;5417;42.686;23.244;2022-10-22T05:33:45;22.70;;;18.40;;
10731;SDS011;5417;42.686;23.244;2022-10-22T05:36:12;20.73;;;18.53;;
10731;SDS011;5417;42.686;23.244;2022-10-22T05:38:42;21.07;;;18.87;;
10731;SDS011;5417;42.686;23.244;2022-10-22T05:41:10;21.73;;;19.40;;
10731;SDS011;5417;42.686;23.244;2022-10-22T05:43:38;22.00;;;18.83;;
10731;SDS011;5417;42.686;23.244;2022-10-22T05:46:06;22.13;;;18.73;;
10731;SDS011;5417;42.686;23.244;2022-10-22T05:48:34;22.27;;;17.90;;
10731;SDS011;5417;42.686;23.244;2022-10-22T05:51:01;20.37;;;17.43;;
10731;SDS011;5417;42.686;23.244;2022-10-22T05:53:29;19.63;;;17.60;;
10731;SDS011;5417;42.686;23.244;2022-10-22T05:56:00;20.17;;;17.07;;
10731;SDS011;5417;42.686;23.244;2022-10-22T05:58:27;19.97;;;17.67;;
10731;SDS011;5417;42.686;23.244;2022-10-22T06:00:59;19.60;;;17.50;;
10731;SDS011;5417;42.686;23.244;2022-10-22T06:03:26;20.10;;;17.40;;
10731;SDS011;5417;42.686;23.244;2022-10-22T06:05:54;21.00;;;18.87;;
10731;SDS011;5417;42.686;23.244;2022-10-22T06:08:20;23.83;;;21.40;;
10731;SDS011;5417;42.686;23.244;2022-10-22T06:10:47;20.97;;;18.67;;
10731;SDS011;5417;42.686;23.244;2022-10-22T06:13:15;19.50;;;17.53;;
10731;SDS011;5417;42.686;23.244;2022-10-22T06:15:42;23.30;;;20.23;;
10731;SDS011;5417;42.686;23.244;2022-10-22T06:18:12;21.47;;;18.93;;
10731;SDS011;5417;42.686;23.244;2022-10-22T06:20:39;26.63;;;20.20;;
10731;SDS011;5417;42.686;23.244;2022-10-22T06:23:07;19.60;;;17.30;;
10731;SDS011;5417;42.686;23.244;2022-10-22T06:25:34;20.30;;;18.30;;
10731;SDS011;5417;42.686;23.244;2022-10-22T06:28:01;19.23;;;17.30;;
10731;SDS011;5417;42.686;23.244;2022-10-22T06:30:29;18.57;;;16.57;;
10731;SDS011;5417;42.686;23.244;2022-10-22T06:32:56;21.47;;;17.63;;
10731;SDS011;5417;42.686;23.244;2022-10-22T06:35:22;21.00;;;18.77;;
10731;SDS011;5417;42.686;23.244;2022-10-22T06:37:52;19.73;;;17.73;;
10731;SDS011;5417;42.686;23.244;2022-10-22T06:40:18;21.87;;;18.40;;
10731;SDS011;5417;42.686;23.244;2022-10-22T06:42:45;21.07;;;18.20;;
10731;SDS011;5417;42.686;23.244;2022-10-22T06:45:12;21.40;;;18.97;;
10731;SDS011;5417;42.686;23.244;2022-10-22T06:47:43;23.50;;;19.40;;
10731;SDS011;5417;42.686;23.244;2022-10-22T06:50:11;21.83;;;19.63;;
10731;SDS011;5417;42.686;23.244;2022-10-22T06:52:38;22.13;;;19.87;;
10731;SDS011;5417;42.686;23.244;2022-10-22T06:55:05;23.40;;;20.67;;
10731;SDS011;5417;42.686;23.244;2022-10-22T06:57:32;24.17;;;20.50;;
10731;SDS011;5417;42.686;23.244;2022-10-22T06:59:59;29.87;;;20.07;;
10731;SDS011;5417;42.686;23.244;2022-10-22T07:03:29;24.27;;;20.47;;
10731;SDS011;5417;42.686;23.244;2022-10-22T07:05:43;22.23;;;19.80;;
10731;SDS011;5417;42.686;23.244;2022-10-22T07:08:10;20.47;;;18.37;;
10731;SDS011;5417;42.686;23.244;2022-10-22T07:10:42;25.17;;;18.50;;
10731;SDS011;5417;42.686;23.244;2022-10-22T07:13:08;21.83;;;19.53;;
10731;SDS011;5417;42.686;23.244;2022-10-22T07:15:35;21.53;;;19.07;;
10731;SDS011;5417;42.686;23.244;2022-10-22T07:18:02;21.17;;;18.97;;
10731;SDS011;5417;42.686;23.244;2022-10-22T07:20:29;21.30;;;19.00;;
10731;SDS011;5417;42.686;23.244;2022-10-22T07:22:57;22.97;;;19.50;;
10731;SDS011;5417;42.686;23.244;2022-10-22T07:25:24;20.83;;;18.77;;
10731;SDS011;5417;42.686;23.244;2022-10-22T07:27:51;20.93;;;18.77;;
10731;SDS011;5417;42.686;23.244;2022-10-22T07:30:18;21.23;;;19.03;;
10731;SDS011;5417;42.686;23.244;2022-10-22T07:32:44;21.67;;;18.60;;
10731;SDS011;5417;42.686;23.244;2022-10-22T07:35:11;21.37;;;17.77;;
10731;SDS011;5417;42.686;23.244;2022-10-22T07:37:38;20.83;;;18.60;;
10731;SDS011;5417;42.686;23.244;2022-10-22T07:40:07;19.47;;;17.37;;
10731;SDS011;5417;42.686;23.244;2022-10-22T07:42:35;20.37;;;18.33;;
10731;SDS011;5417;42.686;23.244;2022-10-22T07:45:01;20.77;;;18.57;;
10731;SDS011;5417;42.686;23.244;2022-10-22T07:47:29;22.67;;;19.93;;
10731;SDS011;5417;42.686;23.244;2022-10-22T07:49:56;23.53;;;21.03;;
10731;SDS011;5417;42.686;23.244;2022-10-22T07:52:23;22.77;;;20.47;;
10731;SDS011;5417;42.686;23.244;2022-10-22T07:54:49;23.83;;;21.37;;
10731;SDS011;5417;42.686;23.244;2022-10-22T07:57:18;24.53;;;22.00;;
10731;SDS011;5417;42.686;23.244;2022-10-22T07:59:45;26.27;;;23.43;;
10731;SDS011;5417;42.686;23.244;2022-10-22T08:02:11;28.40;;;25.30;;
10731;SDS011;5417;42.686;23.244;2022-10-22T08:04:38;34.07;;;28.70;;
10731;SDS011;5417;42.686;23.244;2022-10-22T08:07:05;35.20;;;31.23;;
10731;SDS011;5417;42.686;23.244;2022-10-22T08:09:32;38.50;;;31.90;;
10731;SDS011;5417;42.686;23.244;2022-10-22T08:11:59;33.47;;;28.27;;
10731;SDS011;5417;42.686;23.244;2022-10-22T08:14:28;35.40;;;27.90;;
10731;SDS011;5417;42.686;23.244;2022-10-22T08:16:55;34.53;;;29.03;;
10731;SDS011;5417;42.686;23.244;2022-10-22T08:19:22;27.40;;;23.57;;
10731;SDS011;5417;42.686;23.244;2022-10-22T08:21:49;25.43;;;21.20;;
10731;SDS011;5417;42.686;23.244;2022-10-22T08:24:16;24.60;;;22.00;;
10731;SDS011;5417;42.686;23.244;2022-10-22T08:26:43;22.60;;;20.27;;
10731;SDS011;5417;42.686;23.244;2022-10-22T08:29:09;24.07;;;21.47;;
10731;SDS011;5417;42.686;23.244;2022-10-22T08:31:38;23.47;;;20.87;;
10731;SDS011;5417;42.686;23.244;2022-10-22T08:34:04;22.33;;;20.10;;
10731;SDS011;5417;42.686;23.244;2022-10-22T08:36:32;21.50;;;19.20;;
10731;SDS011;5417;42.686;23.244;2022-10-22T08:38:59;22.50;;;19.93;;
10731;SDS011;5417;42.686;23.244;2022-10-22T08:41:26;23.63;;;21.23;;
10731;SDS011;5417;42.686;23.244;2022-10-22T08:47:02;29.90;;;22.60;;
10731;SDS011;5417;42.686;23.244;2022-10-22T08:49:41;24.13;;;20.30;;
10731;SDS011;5417;42.686;23.244;2022-10-22T08:52:09;24.73;;;19.80;;
10731;SDS011;5417;42.686;23.244;2022-10-22T08:54:41;23.73;;;19.67;;
10731;SDS011;5417;42.686;23.244;2022-10-22T08:57:18;24.37;;;20.37;;
10731;SDS011;5417;42.686;23.244;2022-10-22T08:59:59;27.67;;;20.00;;
10731;SDS011;5417;42.686;23.244;2022-10-22T09:02:34;20.47;;;18.57;;
10731;SDS011;5417;42.686;23.244;2022-10-22T09:05:13;20.07;;;18.07;;
10731;SDS011;5417;42.686;23.244;2022-10-22T09:07:48;22.37;;;19.43;;
10731;SDS011;5417;42.686;23.244;2022-10-22T09:10:17;21.13;;;19.03;;
10731;SDS011;5417;42.686;23.244;2022-10-22T09:12:47;21.33;;;19.03;;
10731;SDS011;5417;42.686;23.244;2022-10-22T09:15:14;23.47;;;20.97;;
10731;SDS011;5417;42.686;23.244;2022-10-22T09:17:48;22.30;;;20.10;;
10731;SDS011;5417;42.686;23.244;2022-10-22T09:20:24;25.67;;;20.60;;
10731;SDS011;5417;42.686;23.244;2022-10-22T09:23:00;24.63;;;20.93;;
10731;SDS011;5417;42.686;23.244;2022-10-22T09:25:39;24.97;;;22.27;;
10731;SDS011;5417;42.686;23.244;2022-10-22T09:28:09;23.03;;;20.57;;
10731;SDS011;5417;42.686;23.244;2022-10-22T09:30:36;25.07;;;22.53;;
10731;SDS011;5417;42.686;23.244;2022-10-22T09:33:10;24.40;;;21.17;;
10731;SDS011;5417;42.686;23.244;2022-10-22T09:35:44;23.80;;;21.50;;
10731;SDS011;5417;42.686;23.244;2022-10-22T09:38:13;24.37;;;21.77;;
10731;SDS011;5417;42.686;23.244;2022-10-22T09:40:42;24.23;;;21.33;;
10731;SDS011;5417;42.686;23.244;2022-10-22T09:43:11;23.10;;;20.70;;
10731;SDS011;5417;42.686;23.244;2022-10-22T09:45:39;24.07;;;20.17;;
10731;SDS011;5417;42.686;23.244;2022-10-22T09:48:13;24.63;;;21.33;;
10731;SDS011;5417;42.686;23.244;2022-10-22T09:50:46;23.77;;;21.33;;
10731;SDS011;5417;42.686;23.244;2022-10-22T09:53:17;25.13;;;21.67;;
10731;SDS011;5417;42.686;23.244;2022-10-22T09:55:49;24.20;;;21.70;;
10731;SDS011;5417;42.686;23.244;2022-10-22T09:58:18;25.20;;;22.10;;
10731;SDS011;5417;42.686;23.244;2022-10-22T10:00:46;25.27;;;22.57;;
10731;SDS011;5417;42.686;23.244;2022-10-22T10:03:18;25.80;;;23.03;;
10731;SDS011;5417;42.686;23.244;2022-10-22T10:05:48;23.50;;;21.03;;
10731;SDS011;5417;42.686;23.244;2022-10-22T10:08:17;25.13;;;22.27;;
10731;SDS011;5417;42.686;23.244;2022-10-22T10:10:46;25.13;;;21.73;;
10731;SDS011;5417;42.686;23.244;2022-10-22T10:13:19;25.63;;;22.20;;
10731;SDS011;5417;42.686;23.244;2022-10-22T10:15:54;26.07;;;22.73;;
10731;SDS011;5417;42.686;23.244;2022-10-22T10:18:27;24.83;;;22.23;;
10731;SDS011;5417;42.686;23.244;2022-10-22T10:21:08;25.77;;;21.77;;
10731;SDS011;5417;42.686;23.244;2022-10-22T10:23:47;26.03;;;22.10;;
10731;SDS011;5417;42.686;23.244;2022-10-22T10:26:23;25.77;;;22.40;;
10731;SDS011;5417;42.686;23.244;2022-10-22T10:28:59;26.77;;;22.90;;
10731;SDS011;5417;42.686;23.244;2022-10-22T10:31:38;24.50;;;22.00;;
10731;SDS011;5417;42.686;23.244;2022-10-22T10:34:19;25.33;;;22.63;;
10731;SDS011;5417;42.686;23.244;2022-10-22T10:36:57;25.20;;;21.77;;
10731;SDS011;5417;42.686;23.244;2022-10-22T10:39:31;23.10;;;20.60;;
10731;SDS011;5417;42.686;23.244;2022-10-22T10:42:19;22.90;;;20.70;;
10731;SDS011;5417;42.686;23.244;2022-10-22T10:44:56;24.90;;;22.20;;
10731;SDS011;5417;42.686;23.244;2022-10-22T10:47:32;26.53;;;22.73;;
10731;SDS011;5417;42.686;23.244;2022-10-22T10:50:15;25.50;;;21.90;;
10731;SDS011;5417;42.686;23.244;2022-10-22T10:52:52;25.73;;;23.00;;
10731;SDS011;5417;42.686;23.244;2022-10-22T10:55:27;29.30;;;23.43;;
10731;SDS011;5417;42.686;23.244;2022-10-22T10:58:00;27.83;;;23.60;;
10731;SDS011;5417;42.686;23.244;2022-10-22T11:00:38;29.27;;;23.50;;
10731;SDS011;5417;42.686;23.244;2022-10-22T11:06:21;25.30;;;22.03;;
10731;SDS011;5417;42.686;23.244;2022-10-22T11:08:51;28.77;;;22.80;;
10731;SDS011;5417;42.686;23.244;2022-10-22T11:11:24;24.50;;;21.47;;
10731;SDS011;5417;42.686;23.244;2022-10-22T11:13:58;24.37;;;21.77;;
10731;SDS011;5417;42.686;23.244;2022-10-22T11:16:30;23.37;;;20.93;;
10731;SDS011;5417;42.686;23.244;2022-10-22T11:19:02;28.37;;;22.57;;
10731;SDS011;5417;42.686;23.244;2022-10-22T11:21:37;25.20;;;22.70;;
10731;SDS011;5417;42.686;23.244;2022-10-22T11:24:09;27.10;;;21.10;;
10731;SDS011;5417;42.686;23.244;2022-10-22T11:26:44;26.07;;;20.93;;
10731;SDS011;5417;42.686;23.244;2022-10-22T11:29:18;24.47;;;19.93;;
10731;SDS011;5417;42.686;23.244;2022-10-22T11:31:49;25.23;;;19.03;;
10731;SDS011;5417;42.686;23.244;2022-10-22T11:34:19;24.63;;;19.83;;
10731;SDS011;5417;42.686;23.244;2022-10-22T11:36:50;20.93;;;18.83;;
10731;SDS011;5417;42.686;23.244;2022-10-22T11:39:29;23.70;;;21.23;;
10731;SDS011;5417;42.686;23.244;2022-10-22T11:42:01;21.53;;;19.07;;
10731;SDS011;5417;42.686;23.244;2022-10-22T11:44:30;20.03;;;17.90;;
10731;SDS011;5417;42.686;23.244;2022-10-22T11:47:14;20.23;;;18.13;;
10731;SDS011;5417;42.686;23.244;2022-10-22T11:49:45;20.90;;;18.73;;
10731;SDS011;5417;42.686;23.244;2022-10-22T11:52:23;20.00;;;17.90;;
10731;SDS011;5417;42.686;23.244;2022-10-22T11:54:55;20.07;;;17.03;;
10731;SDS011;5417;42.686;23.244;2022-10-22T11:57:27;22.43;;;18.70;;
10731;SDS011;5417;42.686;23.244;2022-10-22T12:00:00;19.73;;;17.63;;
10731;SDS011;5417;42.686;23.244;2022-10-22T12:02:41;22.10;;;18.03;;
10731;SDS011;5417;42.686;23.244;2022-10-22T12:08:13;19.87;;;17.53;;
10731;SDS011;5417;42.686;23.244;2022-10-22T12:10:53;18.77;;;16.77;;
10731;SDS011;5417;42.686;23.244;2022-10-22T12:13:25;21.23;;;15.90;;
10731;SDS011;5417;42.686;23.244;2022-10-22T12:15:55;18.83;;;16.60;;
10731;SDS011;5417;42.686;23.244;2022-10-22T12:18:24;20.47;;;16.57;;
10731;SDS011;5417;42.686;23.244;2022-10-22T12:20:53;19.30;;;15.30;;
10731;SDS011;5417;42.686;23.244;2022-10-22T12:23:25;20.20;;;15.97;;
10731;SDS011;5417;42.686;23.244;2022-10-22T12:25:55;19.07;;;16.17;;
10731;SDS011;5417;42.686;23.244;2022-10-22T12:28:22;17.73;;;15.93;;
10731;SDS011;5417;42.686;23.244;2022-10-22T12:30:49;17.10;;;15.30;;
10731;SDS011;5417;42.686;23.244;2022-10-22T12:33:17;16.23;;;14.43;;
10731;SDS011;5417;42.686;23.244;2022-10-22T12:35:46;18.80;;;15.67;;
10731;SDS011;5417;42.686;23.244;2022-10-22T12:38:18;17.07;;;14.67;;
10731;SDS011;5417;42.686;23.244;2022-10-22T12:40:49;16.67;;;14.97;;
10731;SDS011;5417;42.686;23.244;2022-10-22T12:43:23;18.13;;;15.70;;
10731;SDS011;5417;42.686;23.244;2022-10-22T12:45:50;17.20;;;14.87;;
10731;SDS011;5417;42.686;23.244;2022-10-22T12:48:19;16.43;;;14.50;;
10731;SDS011;5417;42.686;23.244;2022-10-22T12:50:49;17.30;;;14.33;;
10731;SDS011;5417;42.686;23.244;2022-10-22T12:53:18;18.87;;;14.53;;
10731;SDS011;5417;42.686;23.244;2022-10-22T12:55:51;17.13;;;14.40;;
10731;SDS011;5417;42.686;23.244;2022-10-22T12:58:20;14.50;;;13.20;;
10731;SDS011;5417;42.686;23.244;2022-10-22T13:00:53;19.80;;;13.87;;
10731;SDS011;5417;42.686;23.244;2022-10-22T13:03:26;16.30;;;14.80;;
10731;SDS011;5417;42.686;23.244;2022-10-22T13:05:55;15.63;;;14.10;;
10731;SDS011;5417;42.686;23.244;2022-10-22T13:08:25;16.17;;;14.47;;
10731;SDS011;5417;42.686;23.244;2022-10-22T13:10:55;14.50;;;12.93;;
10731;SDS011;5417;42.686;23.244;2022-10-22T13:13:29;16.70;;;15.00;;
10731;SDS011;5417;42.686;23.244;2022-10-22T13:16:11;14.87;;;13.47;;
10731;SDS011;5417;42.686;23.244;2022-10-22T13:18:43;16.67;;;15.07;;
10731;SDS011;5417;42.686;23.244;2022-10-22T13:21:20;15.13;;;13.53;;
10731;SDS011;5417;42.686;23.244;2022-10-22T13:23:53;16.27;;;13.23;;
10731;SDS011;5417;42.686;23.244;2022-10-22T13:26:23;14.00;;;12.63;;
10731;SDS011;5417;42.686;23.244;2022-10-22T13:28:55;14.60;;;12.10;;
10731;SDS011;5417;42.686;23.244;2022-10-22T13:31:25;14.20;;;12.77;;
10731;SDS011;5417;42.686;23.244;2022-10-22T13:33:57;14.93;;;13.30;;
10731;SDS011;5417;42.686;23.244;2022-10-22T13:36:26;13.83;;;12.43;;
10731;SDS011;5417;42.686;23.244;2022-10-22T13:38:54;14.03;;;11.87;;
10731;SDS011;5417;42.686;23.244;2022-10-22T13:41:24;17.17;;;13.30;;
10731;SDS011;5417;42.686;23.244;2022-10-22T13:43:53;19.30;;;14.67;;
10731;SDS011;5417;42.686;23.244;2022-10-22T13:46:20;16.23;;;12.87;;
10731;SDS011;5417;42.686;23.244;2022-10-22T13:48:48;14.67;;;12.77;;
10731;SDS011;5417;42.686;23.244;2022-10-22T13:51:17;13.67;;;12.27;;
10731;SDS011;5417;42.686;23.244;2022-10-22T13:53:46;13.30;;;11.93;;
10731;SDS011;5417;42.686;23.244;2022-10-22T13:56:15;15.47;;;11.67;;
10731;SDS011;5417;42.686;23.244;2022-10-22T13:58:45;12.23;;;11.07;;
10731;SDS011;5417;42.686;23.244;2022-10-22T14:01:15;12.73;;;11.20;;
10731;SDS011;5417;42.686;23.244;2022-10-22T14:03:45;13.67;;;12.37;;
10731;SDS011;5417;42.686;23.244;2022-10-22T14:06:14;13.10;;;11.80;;
10731;SDS011;5417;42.686;23.244;2022-10-22T14:08:43;13.17;;;11.73;;
10731;SDS011;5417;42.686;23.244;2022-10-22T14:11:12;13.83;;;11.03;;
10731;SDS011;5417;42.686;23.244;2022-10-22T14:13:39;16.30;;;10.90;;
10731;SDS011;5417;42.686;23.244;2022-10-22T14:16:10;13.60;;;12.00;;
10731;SDS011;5417;42.686;23.244;2022-10-22T14:18:41;12.17;;;10.97;;
10731;SDS011;5417;42.686;23.244;2022-10-22T14:21:09;15.50;;;11.60;;
10731;SDS011;5417;42.686;23.244;2022-10-22T14:23:39;11.60;;;10.50;;
10731;SDS011;5417;42.686;23.244;2022-10-22T14:26:08;12.77;;;11.47;;
10731;SDS011;5417;42.686;23.244;2022-10-22T14:28:45;13.13;;;11.37;;
10731;SDS011;5417;42.686;23.244;2022-10-22T14:31:14;12.87;;;11.57;;
10731;SDS011;5417;42.686;23.244;2022-10-22T14:33:41;12.83;;;10.53;;
10731;SDS011;5417;42.686;23.244;2022-10-22T14:36:08;12.70;;;11.53;;
10731;SDS011;5417;42.686;23.244;2022-10-22T14:38:36;13.43;;;12.07;;
10731;SDS011;5417;42.686;23.244;2022-10-22T14:41:04;13.90;;;12.60;;
10731;SDS011;5417;42.686;23.244;2022-10-22T14:43:39;17.57;;;13.73;;
10731;SDS011;5417;42.686;23.244;2022-10-22T14:46:07;13.73;;;12.23;;
10731;SDS011;5417;42.686;23.244;2022-10-22T14:48:37;13.37;;;11.87;;
10731;SDS011;5417;42.686;23.244;2022-10-22T14:51:04;13.80;;;11.63;;
10731;SDS011;5417;42.686;23.244;2022-10-22T14:53:32;13.17;;;11.67;;